createdAt,value
2023-02-19T00:01:48.099Z,9.80
2023-02-19T00:04:20.252Z,9.98
2023-02-19T00:06:48.712Z,10.32
2023-02-19T00:09:17.995Z,10.55
2023-02-19T00:11:45.079Z,11.02
2023-02-19T00:14:16.313Z,11.10
2023-02-19T00:16:43.545Z,11.63
2023-02-19T00:19:15.057Z,12.27
2023-02-19T00:21:44.397Z,12.05
2023-02-19T00:24:13.607Z,11.75
2023-02-19T00:26:42.067Z,11.68
2023-02-19T00:29:13.179Z,11.18
2023-02-19T00:31:40.588Z,11.18
2023-02-19T00:34:10.143Z,10.77
2023-02-19T00:36:39.321Z,11.23
2023-02-19T00:39:07.792Z,9.85
2023-02-19T00:41:35.044Z,9.82
2023-02-19T00:44:07.356Z,10.98
2023-02-19T00:46:40.796Z,11.77
2023-02-19T00:49:09.486Z,13.80
2023-02-19T00:51:38.313Z,12.57
2023-02-19T00:54:06.457Z,11.25
2023-02-19T00:56:34.191Z,11.85
2023-02-19T00:59:01.333Z,12.65
2023-02-19T01:01:28.429Z,12.75
2023-02-19T01:03:55.682Z,12.25
2023-02-19T01:06:22.882Z,12.80
2023-02-19T01:08:50.445Z,12.13
2023-02-19T01:11:18.754Z,12.82
2023-02-19T01:13:45.906Z,11.52
2023-02-19T01:16:19.556Z,12.02
2023-02-19T01:18:48.054Z,10.98
2023-02-19T01:21:25.824Z,11.80
2023-02-19T01:23:54.059Z,10.40
2023-02-19T01:26:25.581Z,10.93
2023-02-19T01:28:52.971Z,10.75
2023-02-19T01:31:23.268Z,10.48
2023-02-19T01:33:54.343Z,9.93
2023-02-19T01:36:21.963Z,10.23
2023-02-19T01:38:49.971Z,9.40
2023-02-19T01:41:21.307Z,9.15
2023-02-19T01:44:09.917Z,9.73
2023-02-19T01:46:39.684Z,8.95
2023-02-19T01:49:09.911Z,9.68
2023-02-19T01:51:40.973Z,9.10
2023-02-19T01:54:10.786Z,9.27
2023-02-19T01:56:40.650Z,9.38
2023-02-19T01:59:08.096Z,8.77
2023-02-19T02:28:20.858Z,7.95
2023-02-19T02:30:58.431Z,7.93
2023-02-19T02:33:54.836Z,7.80
2023-02-19T02:36:27.553Z,7.55
2023-02-19T02:38:57.053Z,8.18
2023-02-19T02:41:25.410Z,7.95
2023-02-19T02:43:52.578Z,8.48
2023-02-19T02:46:26.316Z,7.78
2023-02-19T02:48:58.457Z,8.25
2023-02-19T02:51:31.636Z,7.60
2023-02-19T02:54:39.482Z,7.82
2023-02-19T02:57:09.539Z,7.80
2023-02-19T02:59:39.909Z,8.32
2023-02-19T03:02:19.097Z,7.95
2023-02-19T03:05:15.652Z,8.23
2023-02-19T03:08:02.129Z,7.53
2023-02-19T03:10:44.521Z,8.57
2023-02-19T03:13:44.993Z,9.00
2023-02-19T03:16:43.019Z,8.48
2023-02-19T03:19:20.372Z,8.40
2023-02-19T03:21:53.506Z,9.50
2023-02-19T03:24:44.820Z,8.98
2023-02-19T03:27:14.638Z,8.55
2023-02-19T03:29:44.523Z,9.82
2023-02-19T03:32:14.515Z,9.13
2023-02-19T03:34:57.294Z,10.50
2023-02-19T03:37:44.892Z,10.45
2023-02-19T03:40:13.228Z,10.60
2023-02-19T03:42:44.660Z,11.50
2023-02-19T03:45:36.089Z,9.70
2023-02-19T03:48:25.268Z,10.27
2023-02-19T03:51:16.058Z,10.20
2023-02-19T03:54:15.035Z,10.15
2023-02-19T03:56:48.482Z,11.00
2023-02-19T03:59:27.658Z,10.45
2023-02-19T04:02:01.178Z,10.90
2023-02-19T04:04:35.515Z,11.88
2023-02-19T04:07:02.939Z,13.18
2023-02-19T04:09:36.180Z,11.90
2023-02-19T04:12:06.386Z,11.30
2023-02-19T04:14:41.139Z,10.60
2023-02-19T04:17:18.015Z,11.18
2023-02-19T04:19:47.166Z,11.80
2023-02-19T04:22:16.020Z,12.43
2023-02-19T04:24:55.607Z,12.27
2023-02-19T04:27:22.820Z,12.10
2023-02-19T04:29:49.930Z,12.63
2023-02-19T04:32:17.125Z,11.30
2023-02-19T04:34:44.305Z,11.57
2023-02-19T04:37:11.770Z,12.70
2023-02-19T04:39:39.155Z,11.73
2023-02-19T04:42:06.322Z,12.98
2023-02-19T04:44:34.057Z,12.10
2023-02-19T04:47:01.431Z,12.15
2023-02-19T04:49:28.744Z,13.43
2023-02-19T04:51:55.945Z,12.27
2023-02-19T04:54:23.108Z,12.77
2023-02-19T04:56:50.995Z,13.13
2023-02-19T04:59:18.136Z,12.27
2023-02-19T05:01:45.352Z,12.20
2023-02-19T05:04:12.610Z,12.35
2023-02-19T05:06:39.675Z,12.70
2023-02-19T05:09:06.798Z,12.35
2023-02-19T05:11:33.968Z,14.20
2023-02-19T05:14:01.621Z,13.18
2023-02-19T05:16:28.796Z,12.75
2023-02-19T05:18:55.917Z,12.38
2023-02-19T05:21:23.023Z,12.60
2023-02-19T05:23:50.100Z,13.00
2023-02-19T05:26:20.586Z,13.50
2023-02-19T05:28:49.904Z,13.77
2023-02-19T05:31:17.669Z,11.98
2023-02-19T05:33:48.349Z,13.93
2023-02-19T05:36:15.427Z,14.15
2023-02-19T05:38:43.138Z,14.57
2023-02-19T05:41:12.419Z,15.35
2023-02-19T05:43:40.770Z,14.07
2023-02-19T05:46:09.016Z,15.35
2023-02-19T05:48:36.461Z,13.95
2023-02-19T05:51:08.841Z,14.25
2023-02-19T05:53:36.929Z,14.73
2023-02-19T05:56:04.259Z,13.88
2023-02-19T05:58:31.420Z,14.98
2023-02-19T06:00:58.537Z,16.02
2023-02-19T06:03:25.725Z,15.95
2023-02-19T06:05:52.826Z,15.70
2023-02-19T06:08:19.942Z,16.30
2023-02-19T06:10:48.082Z,16.33
2023-02-19T06:13:16.844Z,16.42
2023-02-19T06:15:44.844Z,15.88
2023-02-19T06:18:11.880Z,16.25
2023-02-19T06:20:39.060Z,14.73
2023-02-19T06:23:06.406Z,16.40
2023-02-19T06:25:33.509Z,15.75
2023-02-19T06:28:00.515Z,16.30
2023-02-19T06:30:27.671Z,15.10
2023-02-19T06:32:54.825Z,14.75
2023-02-19T06:35:21.935Z,14.20
2023-02-19T06:37:49.911Z,15.75
2023-02-19T06:40:17.185Z,15.55
2023-02-19T06:42:44.406Z,15.95
2023-02-19T06:45:11.549Z,16.92
2023-02-19T06:47:38.741Z,17.83
2023-02-19T06:50:07.087Z,19.17
2023-02-19T06:52:34.193Z,19.38
2023-02-19T06:55:01.221Z,19.95
2023-02-19T06:57:28.870Z,20.00
2023-02-19T06:59:55.912Z,21.27
2023-02-19T07:02:22.933Z,21.08
2023-02-19T07:04:50.000Z,20.20
2023-02-19T07:07:17.066Z,20.23
2023-02-19T07:09:44.082Z,20.45
2023-02-19T07:12:11.142Z,18.60
2023-02-19T07:14:38.133Z,20.00
2023-02-19T07:17:05.892Z,17.30
2023-02-19T07:19:33.978Z,17.02
2023-02-19T07:22:01.046Z,17.92
2023-02-19T07:24:28.074Z,17.85
2023-02-19T07:26:55.175Z,17.52
2023-02-19T07:29:22.241Z,18.02
2023-02-19T07:31:49.493Z,17.27
2023-02-19T07:34:17.527Z,17.10
2023-02-19T07:36:44.688Z,17.27
2023-02-19T07:39:14.246Z,17.40
2023-02-19T07:41:41.365Z,15.63
2023-02-19T07:44:08.524Z,17.05
2023-02-19T07:46:35.676Z,15.95
2023-02-19T07:49:02.740Z,15.13
2023-02-19T07:51:29.802Z,16.13
2023-02-19T07:53:56.844Z,15.82
2023-02-19T07:56:23.992Z,14.40
2023-02-19T07:58:51.034Z,14.38
2023-02-19T08:01:41.830Z,14.75
2023-02-19T08:04:10.477Z,14.63
2023-02-19T08:06:37.651Z,13.70
2023-02-19T08:09:05.988Z,12.45
2023-02-19T08:11:51.714Z,11.27
2023-02-19T08:14:18.963Z,11.50
2023-02-19T08:16:50.699Z,11.20
2023-02-19T08:19:19.576Z,11.73
2023-02-19T08:21:46.856Z,11.60
2023-02-19T08:24:13.906Z,12.30
2023-02-19T08:26:41.083Z,11.52
2023-02-19T08:29:08.175Z,12.23
2023-02-19T08:31:35.320Z,10.73
2023-02-19T08:34:02.905Z,12.18
2023-02-19T08:36:30.000Z,12.80
2023-02-19T08:38:57.057Z,12.50
2023-02-19T08:41:24.187Z,13.02
2023-02-19T08:43:51.321Z,12.30
2023-02-19T08:46:18.496Z,12.23
2023-02-19T08:48:45.672Z,12.43
2023-02-19T08:51:13.019Z,13.85
2023-02-19T08:53:41.483Z,14.05
2023-02-19T08:56:13.652Z,14.52
2023-02-19T08:58:40.831Z,13.48
2023-02-19T09:01:13.873Z,13.00
2023-02-19T09:03:41.579Z,12.65
2023-02-19T09:06:11.715Z,13.32
2023-02-19T09:08:38.863Z,13.32
2023-02-19T09:11:07.234Z,13.15
2023-02-19T09:13:34.386Z,13.05
2023-02-19T09:16:03.987Z,13.20
2023-02-19T09:18:31.178Z,12.75
2023-02-19T09:21:01.687Z,12.20
2023-02-19T09:23:29.174Z,12.80
2023-02-19T09:26:08.752Z,12.20
2023-02-19T09:28:36.728Z,11.73
2023-02-19T09:31:06.231Z,12.32
2023-02-19T09:33:33.730Z,10.98
2023-02-19T09:36:01.081Z,11.10
2023-02-19T09:38:29.561Z,11.45
2023-02-19T09:41:00.611Z,11.27
2023-02-19T09:43:30.111Z,10.05
2023-02-19T09:46:18.492Z,10.82
2023-02-19T09:48:45.724Z,10.43
2023-02-19T09:51:14.124Z,11.68
2023-02-19T09:53:44.573Z,10.75
2023-02-19T09:56:11.764Z,10.70
2023-02-19T09:58:49.320Z,9.95
2023-02-19T10:01:17.093Z,10.80
2023-02-19T10:03:48.786Z,10.20
2023-02-19T10:06:24.130Z,10.45
2023-02-19T10:08:54.519Z,10.85
2023-02-19T10:11:23.563Z,9.85
2023-02-19T10:14:22.759Z,9.50
2023-02-19T10:16:50.783Z,8.75
2023-02-19T10:19:18.228Z,8.40
2023-02-19T10:21:45.776Z,9.63
2023-02-19T10:24:23.808Z,9.07
2023-02-19T10:26:51.389Z,8.95
2023-02-19T10:29:20.241Z,9.25
2023-02-19T10:31:47.839Z,9.15
2023-02-19T10:34:22.415Z,8.85
2023-02-19T10:36:51.820Z,10.00
2023-02-19T10:39:37.463Z,8.70
2023-02-19T10:42:04.818Z,8.82
2023-02-19T10:44:45.843Z,8.65
2023-02-19T10:47:19.708Z,8.00
2023-02-19T10:49:48.904Z,8.18
2023-02-19T10:52:29.541Z,6.75
2023-02-19T10:55:17.698Z,6.88
2023-02-19T10:57:47.058Z,6.82
2023-02-19T11:00:16.841Z,7.78
2023-02-19T11:02:45.334Z,7.40
2023-02-19T11:05:12.322Z,7.75
2023-02-19T11:07:47.247Z,7.57
2023-02-19T11:10:27.661Z,7.47
2023-02-19T11:13:00.389Z,8.20
2023-02-19T11:15:37.274Z,7.30
2023-02-19T11:18:13.127Z,6.90
2023-02-19T11:20:54.572Z,7.07
2023-02-19T11:23:29.061Z,7.88
2023-02-19T11:25:59.390Z,7.60
2023-02-19T11:28:33.840Z,7.55
2023-02-19T11:31:29.076Z,7.78
2023-02-19T11:33:59.794Z,7.55
2023-02-19T11:36:30.998Z,8.45
2023-02-19T11:39:04.971Z,8.13
2023-02-19T11:42:23.582Z,8.52
2023-02-19T11:45:11.217Z,8.90
2023-02-19T11:47:54.678Z,8.55
2023-02-19T11:50:43.115Z,8.15
2023-02-19T11:53:37.423Z,7.18
2023-02-19T11:56:36.189Z,7.63
2023-02-19T11:59:48.747Z,7.93
2023-02-19T12:02:29.100Z,7.40
2023-02-19T12:05:34.228Z,7.40
2023-02-19T12:23:04.816Z,7.07
2023-02-19T12:25:36.945Z,7.82
2023-02-19T12:28:27.508Z,7.30
2023-02-19T12:31:28.839Z,6.78
2023-02-19T12:34:03.518Z,8.40
2023-02-19T12:36:44.388Z,6.32
2023-02-19T12:39:49.755Z,6.78
2023-02-19T12:42:57.024Z,6.88
2023-02-19T12:45:42.952Z,6.28
2023-02-19T12:48:36.950Z,6.43
2023-02-19T12:51:26.418Z,6.60
2023-02-19T12:53:56.492Z,6.85
2023-02-19T12:56:32.459Z,7.47
2023-02-19T12:59:21.412Z,7.15
2023-02-19T13:02:15.186Z,8.27
2023-02-19T13:04:59.435Z,8.50
2023-02-19T13:07:40.911Z,8.02
2023-02-19T13:10:29.460Z,9.40
2023-02-19T13:13:00.507Z,10.25
2023-02-19T13:15:41.878Z,11.20
2023-02-19T13:18:31.986Z,9.63
2023-02-19T13:21:00.139Z,10.40
2023-02-19T13:23:48.127Z,10.52
2023-02-19T13:26:24.410Z,9.75
2023-02-19T13:29:19.262Z,10.13
2023-02-19T13:34:56.024Z,7.43
2023-02-19T13:37:24.841Z,5.97
2023-02-19T13:39:54.150Z,5.82
2023-02-19T13:42:31.387Z,4.45
2023-02-19T13:44:59.472Z,3.92
2023-02-19T13:47:48.329Z,3.42
2023-02-19T13:50:27.014Z,4.00
2023-02-19T13:52:59.008Z,4.35
2023-02-19T13:55:46.848Z,5.43
2023-02-19T13:58:36.426Z,5.60
2023-02-19T14:01:07.035Z,6.13
2023-02-19T14:03:46.638Z,6.53
2023-02-19T14:06:14.236Z,6.65
2023-02-19T14:08:48.424Z,7.68
2023-02-19T14:13:52.369Z,6.18
2023-02-19T14:16:33.507Z,5.60
2023-02-19T14:19:01.040Z,5.88
2023-02-19T14:21:39.693Z,5.93
2023-02-19T14:24:13.329Z,5.47
2023-02-19T14:26:41.545Z,5.43
2023-02-19T14:29:10.802Z,4.70
2023-02-19T14:31:39.050Z,5.28
2023-02-19T14:34:28.426Z,4.90
2023-02-19T14:37:01.431Z,5.43
2023-02-19T14:39:35.397Z,4.75
2023-02-19T14:42:16.109Z,5.30
2023-02-19T14:44:56.937Z,5.18
2023-02-19T14:47:29.641Z,5.40
2023-02-19T14:50:08.772Z,5.50
2023-02-19T14:52:48.250Z,6.47
2023-02-19T14:55:34.062Z,5.85
2023-02-19T14:58:12.137Z,7.30
2023-02-19T15:00:41.562Z,6.88
2023-02-19T15:03:36.371Z,6.57
2023-02-19T15:08:45.433Z,6.80
2023-02-19T15:11:19.175Z,7.50
2023-02-19T15:13:55.689Z,7.97
2023-02-19T15:16:26.035Z,7.80
2023-02-19T15:18:55.040Z,8.82
2023-02-19T15:21:30.377Z,8.52
2023-02-19T15:24:03.225Z,6.85
2023-02-19T15:26:43.056Z,7.30
2023-02-19T15:29:15.830Z,7.45
2023-02-19T15:31:55.937Z,8.10
2023-02-19T15:34:28.615Z,8.13
2023-02-19T15:37:12.990Z,7.72
2023-02-19T15:39:44.935Z,9.65
2023-02-19T15:42:27.993Z,8.02
2023-02-19T15:45:20.990Z,9.25
2023-02-19T15:47:56.799Z,10.25
2023-02-19T15:50:30.627Z,9.63
2023-02-19T15:53:18.386Z,10.15
2023-02-19T15:56:17.821Z,11.70
2023-02-19T15:59:05.762Z,12.35
2023-02-19T16:01:37.827Z,11.50
2023-02-19T16:04:12.138Z,12.02
2023-02-19T16:07:02.289Z,11.65
2023-02-19T16:09:32.711Z,12.75
2023-02-19T16:12:01.189Z,11.90
2023-02-19T16:14:38.205Z,11.52
2023-02-19T16:17:11.197Z,11.23
2023-02-19T16:19:45.988Z,12.15
2023-02-19T16:22:24.749Z,11.45
2023-02-19T16:24:55.206Z,13.77
2023-02-19T16:27:42.170Z,12.48
2023-02-19T16:30:25.408Z,10.98
2023-02-19T16:33:31.974Z,11.30
2023-02-19T16:36:16.570Z,11.40
2023-02-19T16:41:39.796Z,11.05
2023-02-19T16:44:25.170Z,10.50
2023-02-19T16:47:01.123Z,11.63
2023-02-19T16:49:30.552Z,12.18
2023-02-19T16:51:59.909Z,10.30
2023-02-19T16:54:26.979Z,10.88
2023-02-19T16:56:54.129Z,11.02
2023-02-19T16:59:21.276Z,10.07
2023-02-19T17:01:48.267Z,10.07
2023-02-19T17:04:16.225Z,10.80
2023-02-19T17:06:44.525Z,10.20
2023-02-19T17:09:11.604Z,10.50
2023-02-19T17:11:38.707Z,10.60
2023-02-19T17:14:05.942Z,9.38
2023-02-19T17:16:40.578Z,10.38
2023-02-19T17:19:17.027Z,10.40
2023-02-19T17:21:45.863Z,9.90
2023-02-19T17:24:13.826Z,11.68
2023-02-19T17:26:41.178Z,12.35
2023-02-19T17:29:14.186Z,10.55
2023-02-19T17:31:41.712Z,10.55
2023-02-19T17:34:09.172Z,11.93
2023-02-19T17:36:38.068Z,11.73
2023-02-19T17:39:08.877Z,11.75
2023-02-19T17:41:36.114Z,12.35
2023-02-19T17:44:03.204Z,12.50
2023-02-19T17:46:30.339Z,13.05
2023-02-19T17:48:57.451Z,14.23
2023-02-19T17:51:25.722Z,12.63
2023-02-19T17:53:52.901Z,12.50
2023-02-19T17:56:25.597Z,9.13
2023-02-19T17:58:55.278Z,9.38
2023-02-19T18:01:22.883Z,8.00
2023-02-19T18:03:51.373Z,7.18
2023-02-19T18:06:18.766Z,5.85
2023-02-19T18:08:51.362Z,6.07
2023-02-19T18:11:22.239Z,5.68
2023-02-19T18:13:51.160Z,5.70
2023-02-19T18:16:19.351Z,5.45
2023-02-19T18:18:46.476Z,4.95
2023-02-19T18:21:14.473Z,4.82
2023-02-19T18:23:42.119Z,4.43
2023-02-19T18:26:11.768Z,3.95
2023-02-19T18:28:40.281Z,3.53
2023-02-19T18:31:07.805Z,4.22
2023-02-19T18:33:35.506Z,4.03
2023-02-19T18:36:03.174Z,3.60
2023-02-19T18:38:30.376Z,3.83
2023-02-19T18:40:58.828Z,3.67
2023-02-19T18:43:26.822Z,3.42
2023-02-19T18:45:53.985Z,3.10
2023-02-19T18:48:21.228Z,3.42
2023-02-19T18:50:48.285Z,4.95
2023-02-19T18:53:15.463Z,3.72
2023-02-19T18:55:42.574Z,2.88
2023-02-19T18:58:09.685Z,3.33
2023-02-19T19:00:36.917Z,2.47
2023-02-19T19:03:04.259Z,2.53
2023-02-19T19:05:31.387Z,2.42
2023-02-19T19:07:59.736Z,2.80
2023-02-19T19:10:26.988Z,2.60
2023-02-19T19:12:54.630Z,2.55
2023-02-19T19:15:22.699Z,2.33
2023-02-19T19:17:50.328Z,2.25
2023-02-19T19:20:19.915Z,2.30
2023-02-19T19:22:50.645Z,2.75
2023-02-19T19:25:18.559Z,2.88
2023-02-19T19:27:47.360Z,3.10
2023-02-19T19:30:14.809Z,2.65
2023-02-19T19:32:42.372Z,2.92
2023-02-19T19:35:09.862Z,2.40
2023-02-19T19:37:36.995Z,2.75
2023-02-19T19:40:04.425Z,2.72
2023-02-19T19:42:32.078Z,2.30
2023-02-19T19:44:59.495Z,2.55
2023-02-19T19:47:26.713Z,2.80
2023-02-19T19:49:53.819Z,3.70
2023-02-19T19:52:22.295Z,3.30
2023-02-19T19:54:54.113Z,3.60
2023-02-19T19:57:21.614Z,3.50
2023-02-19T19:59:51.154Z,3.30
2023-02-19T20:02:19.567Z,2.90
2023-02-19T20:04:47.116Z,3.00
2023-02-19T20:07:14.194Z,3.28
2023-02-19T20:09:41.705Z,3.38
2023-02-19T20:12:09.228Z,3.90
2023-02-19T20:14:36.282Z,3.00
2023-02-19T20:17:03.435Z,2.95
2023-02-19T20:19:30.623Z,2.92
2023-02-19T20:22:00.588Z,2.90
2023-02-19T20:24:32.062Z,3.47
2023-02-19T20:27:01.485Z,3.80
2023-02-19T20:29:30.758Z,4.40
2023-02-19T20:32:00.370Z,3.63
2023-02-19T20:34:27.841Z,3.10
2023-02-19T20:36:56.291Z,5.03
2023-02-19T20:39:29.858Z,4.20
2023-02-19T20:42:00.252Z,3.47
2023-02-19T20:44:29.163Z,3.30
2023-02-19T20:46:58.844Z,2.60
2023-02-19T20:49:29.941Z,3.15
2023-02-19T20:51:59.424Z,2.67
2023-02-19T20:54:29.352Z,3.47
2023-02-19T20:56:59.358Z,3.65
2023-02-19T20:59:31.621Z,3.65
2023-02-19T21:01:59.213Z,3.90
2023-02-19T21:04:27.207Z,3.83
2023-02-19T21:06:54.556Z,4.28
2023-02-19T21:09:23.900Z,3.85
2023-02-19T21:11:53.129Z,4.32
2023-02-19T21:14:20.988Z,4.75
2023-02-19T21:16:48.437Z,4.18
2023-02-19T21:19:15.538Z,4.00
2023-02-19T21:21:42.699Z,3.88
2023-02-19T21:24:13.119Z,4.47
2023-02-19T21:26:41.368Z,4.13
2023-02-19T21:29:13.007Z,4.60
2023-02-19T21:31:43.999Z,4.22
2023-02-19T21:34:13.593Z,3.60
2023-02-19T21:36:40.738Z,2.88
2023-02-19T21:39:09.590Z,2.85
2023-02-19T21:41:36.694Z,2.80
2023-02-19T21:44:04.276Z,2.78
2023-02-19T21:46:33.286Z,2.78
2023-02-19T21:49:01.187Z,3.40
2023-02-19T21:51:37.483Z,3.05
2023-02-19T21:54:06.179Z,3.38
2023-02-19T21:56:36.228Z,3.45
2023-02-19T21:59:04.137Z,3.42
2023-02-19T22:01:39.580Z,3.35
2023-02-19T22:04:07.746Z,3.13
2023-02-19T22:06:35.089Z,3.67
2023-02-19T22:09:03.174Z,3.20
2023-02-19T22:11:30.755Z,3.00
2023-02-19T22:13:58.533Z,3.30
2023-02-19T22:16:25.895Z,2.72
2023-02-19T22:18:55.146Z,2.97
2023-02-19T22:21:23.733Z,3.10
2023-02-19T22:23:52.213Z,2.90
2023-02-19T22:26:25.828Z,3.03
2023-02-19T22:28:53.537Z,3.13
2023-02-19T22:31:23.103Z,3.00
2023-02-19T22:33:50.828Z,2.95
2023-02-19T22:36:27.937Z,3.00
2023-02-19T22:38:55.199Z,3.28
2023-02-19T22:41:22.873Z,3.45
2023-02-19T22:43:50.426Z,3.28
2023-02-19T22:46:20.842Z,2.95
2023-02-19T22:48:47.884Z,3.75
2023-02-19T22:51:17.643Z,2.97
2023-02-19T22:53:48.612Z,3.45
2023-02-19T22:56:17.802Z,3.80
2023-02-19T22:58:45.658Z,3.05
2023-02-19T23:01:13.889Z,3.25
2023-02-19T23:03:52.867Z,3.08
2023-02-19T23:06:32.148Z,3.53
2023-02-19T23:09:03.900Z,3.55
2023-02-19T23:11:34.654Z,3.30
2023-02-19T23:14:02.314Z,3.53
2023-02-19T23:16:29.997Z,3.42
2023-02-19T23:18:57.137Z,3.60
2023-02-19T23:21:24.314Z,3.63
2023-02-19T23:23:51.537Z,3.50
2023-02-19T23:26:19.426Z,3.60
2023-02-19T23:28:47.266Z,3.95
2023-02-19T23:31:14.923Z,3.67
2023-02-19T23:33:42.382Z,3.75
2023-02-19T23:36:13.546Z,4.13
2023-02-19T23:38:43.268Z,3.92
2023-02-19T23:41:11.650Z,3.65
2023-02-19T23:43:38.814Z,4.43
2023-02-19T23:46:06.255Z,4.55
2023-02-19T23:48:33.426Z,4.47
2023-02-19T23:51:00.525Z,4.82
2023-02-19T23:53:27.836Z,5.63
2023-02-19T23:55:55.135Z,5.07
2023-02-19T23:58:22.353Z,4.93
